Canton, SD

12:57 PM CDT on September 18, 2014 (GMT -0500)
NonFedAWOS CANTON SD US SUPERAWOS | Change Station
CLOSE
Current Station
Personal Weather Station
Location: Canton, SD
Elevation: 1290 ft
Nearby Weather Stations

Elev 1290 ft 43.31 °N, 96.57 °W | Updated 22 minutes ago

Scattered Clouds
Scattered Clouds
73.0 °F
Feels Like 77 °F
N
10.0
Wind Variable Wind from SE
Gusts 15.0 mph

Today
High -- | Low -- °F
--% Chance of Precip.
Yesterday
High -- | Low -- °F
Precip. -- in
7:09 AM 7:30 PM
Waning Crescent, 25% visible
Pressure 30.01 in
Visibility 10.0 miles
Clouds Few 4000 ft
Few 15000 ft
Scattered Clouds 25000 ft
Heat Index 77 °F
Dew Point 57.0 °F
Humidity 56%
Rainfall -999.00 in
Snow Depth 0 in
UV 5 out of 12
Pollen 5.30 out of 12
Air Quality Not available.
Flu Activity Not available.
METAR KFSD 181656Z 19016G22KT 10SM FEW040 FEW150 SCT250 23/13 A3002 RMK AO2 SLP161 T02280128

More Conditions Fewer Conditions

Pressure 30.01 in
Visibility 10.0 miles
Clouds Few 4000 ft
Few 15000 ft
Scattered Clouds 25000 ft
Heat Index 77 °F
Dew Point 57.0 °F
Humidity 56%
Rainfall -999.00 in
Snow Depth 0 in
UV 5 out of 12
Pollen 5.30 out of 12
Air Quality Not available.
Flu Activity Not available.
METAR KFSD 181656Z 19016G22KT 10SM FEW040 FEW150 SCT250 23/13 A3002 RMK AO2 SLP161 T02280128

More Conditions Fewer Conditions

10-Day Weather Forecast

Almanac

Astronomy

Sep. 18, 2014 Rise Set
Actual Time 7:09 AM CDT 7:30 PM CDT
Civil Twilight 6:40 AM CDT 7:59 PM CDT
Nautical Twilight 6:06 AM CDT 8:32 PM CDT
Astronomical Twilight 5:32 AM CDT 9:07 PM CDT
Moon 1:55 AM CDT 4:28 PM CDT
Length of Visible Light 13h 18m
Length of Day
12h 21m
Tomorrow will be 2m 56s shorter.
Waning Crescent, 25% of the Moon is Illuminated
Today
Waning Crescent
Sep 24
New
Oct 1
First Quarter
Oct 8
Full
Oct 15
Last Quarter

Today's Extremes

State Highs State Lows

Community

WunderPhotos

Upload Photos

1,754,409 photos uploaded!

Nearby

Snow Depth

Station Depth Elevation
Blind Park 0 in 6890 ft

Earthquake Activity

City Distance Mag. Time & Date
No recent earthquake activity has been reported nearby.
Minimum magnitude displayed is 2.5.

Coastal Water Temperatures

Place Temperature
No Stations Reporting

Nearby Weather Stations